Belle Isle, Florida
Current Conditions -  °F | °C
As of 10:53 PM on Sunday 21 Dec 2014 (Local Time) from KMCO Reporting Station
Overcast Overcast  
Wind Chill: 68°   Ceiling: 8000
Heat Index: 68°   Visibility: 8mi
Dew Point: 67°   Wind: 0mph
Humidity: 96%   Direction: NA
Pressure: 30.05"   Gusts: NA
Location:  28.4861°N, 81.3274°W
Report Text: KMCO 220353Z 00000KT 8SM FEW008 OVC080 20/19 A3005 RMK AO2 SLP174 T02000194
Loading
Personal Weather Stations






























Interactive Weather Map New forecast layout! Learn more

10-Day Weather Forecast

Advertisements
Track Severe Weather on mobile